Time;durP1;ratioP1;P1;durP2;ratioP2;P2;SDS_P1;SDS_P2;PMS_P1;PMS_P2;Temp;Humidity;BMP_temperature;BMP_pressure;BME280_temperature;BME280_humidity;BME280_pressure;Samples;Min_cycle;Max_cycle;Signal;HPM_P1;HPM_P2
2021/10/14 00:00:24;;;;;;;66.88;8.43;;;11.60;83.50;;;;;;4995669;28;20038;-62
2021/10/14 00:02:50;;;;;;;62.95;9.55;;;11.60;83.70;;;;;;5030447;28;20038;-60
2021/10/14 00:05:16;;;;;;;55.92;8.35;;;11.60;83.70;;;;;;5028462;28;20029;-63
2021/10/14 00:07:42;;;;;;;54.42;10.10;;;11.60;83.50;;;;;;5031909;28;20382;-60
2021/10/14 00:10:07;;;;;;;56.65;8.70;;;11.70;83.60;;;;;;5024072;28;20358;-61
2021/10/14 00:12:33;;;;;;;42.17;8.95;;;11.60;83.50;;;;;;5004939;28;20129;-60
2021/10/14 00:14:58;;;;;;;41.17;8.23;;;11.50;83.60;;;;;;5030562;28;20025;-61
2021/10/14 00:17:24;;;;;;;41.42;9.32;;;11.50;83.60;;;;;;4993888;28;20108;-60
2021/10/14 00:19:49;;;;;;;61.97;10.13;;;11.50;83.70;;;;;;5025142;28;20626;-60
2021/10/14 00:22:15;;;;;;;52.28;8.77;;;11.50;83.70;;;;;;5028391;28;20044;-61
2021/10/14 00:24:41;;;;;;;42.40;10.82;;;11.50;83.80;;;;;;5021545;28;20045;-61
2021/10/14 00:27:06;;;;;;;45.10;9.23;;;11.40;83.90;;;;;;5028276;28;20025;-61
2021/10/14 00:29:32;;;;;;;46.95;9.30;;;11.40;83.80;;;;;;5025243;28;20026;-60
2021/10/14 00:31:57;;;;;;;48.13;8.90;;;11.40;83.90;;;;;;5028968;28;20116;-60
2021/10/14 00:34:23;;;;;;;51.28;10.90;;;11.40;84.00;;;;;;5025617;28;20037;-61
2021/10/14 00:36:48;;;;;;;42.80;9.43;;;11.40;84.10;;;;;;5027108;28;20029;-61
2021/10/14 00:39:14;;;;;;;28.98;8.93;;;11.30;84.00;;;;;;5030142;28;20045;-61
2021/10/14 00:41:39;;;;;;;32.95;8.07;;;11.30;84.10;;;;;;5026065;28;20486;-61
2021/10/14 00:44:05;;;;;;;45.13;9.75;;;11.30;84.10;;;;;;5031879;28;20038;-60
2021/10/14 00:46:30;;;;;;;55.38;9.80;;;11.30;84.20;;;;;;5033413;28;20025;-60
2021/10/14 00:48:56;;;;;;;43.15;9.70;;;11.20;84.20;;;;;;5024670;28;20037;-60
2021/10/14 00:51:21;;;;;;;35.15;7.60;;;11.20;84.30;;;;;;5024090;28;20488;-60
2021/10/14 00:53:47;;;;;;;49.15;9.75;;;11.20;84.40;;;;;;5025550;28;20120;-61
2021/10/14 00:56:13;;;;;;;48.83;9.60;;;11.20;84.40;;;;;;5021054;28;20029;-61
2021/10/14 00:58:39;;;;;;;54.10;9.27;;;11.20;84.90;;;;;;5022584;28;20029;-61
2021/10/14 01:01:04;;;;;;;55.60;9.80;;;11.20;84.20;;;;;;5010145;28;20485;-62
2021/10/14 01:03:30;;;;;;;42.35;8.20;;;11.10;84.40;;;;;;5013428;28;20030;-60
2021/10/14 01:05:56;;;;;;;39.65;9.27;;;11.10;84.30;;;;;;5007680;28;20053;-61
2021/10/14 01:08:22;;;;;;;29.02;7.88;;;11.10;84.30;;;;;;5006281;28;20045;-60
2021/10/14 01:10:48;;;;;;;35.78;6.93;;;11.10;84.40;;;;;;5030596;28;20076;-60
2021/10/14 01:13:13;;;;;;;40.53;7.90;;;11.00;85.00;;;;;;5036400;28;20120;-59
2021/10/14 01:15:39;;;;;;;25.15;7.95;;;11.00;84.30;;;;;;5024592;28;20536;-60
2021/10/14 01:18:04;;;;;;;37.78;7.00;;;11.00;84.40;;;;;;5024737;28;20047;-60
2021/10/14 01:20:30;;;;;;;23.00;7.50;;;11.00;84.40;;;;;;5031455;28;20646;-60
2021/10/14 01:22:56;;;;;;;29.23;6.60;;;11.00;84.40;;;;;;5022648;28;20374;-61
2021/10/14 01:25:21;;;;;;;21.20;7.30;;;10.90;84.30;;;;;;5020754;28;20105;-60
2021/10/14 01:27:50;;;;;;;34.47;6.32;;;11.00;84.50;;;;;;5027979;28;20066;-63
2021/10/14 01:30:16;;;;;;;26.10;6.10;;;11.00;84.60;;;;;;5021700;28;20026;-60
2021/10/14 01:32:41;;;;;;;24.33;6.25;;;10.90;84.60;;;;;;5006794;28;20110;-60
2021/10/14 01:35:07;;;;;;;22.13;6.10;;;10.90;84.60;;;;;;5022976;28;20030;-60
2021/10/14 01:37:32;;;;;;;17.77;5.68;;;10.90;84.50;;;;;;5026901;28;20128;-60
2021/10/14 01:39:59;;;;;;;24.15;5.90;;;10.90;84.60;;;;;;5019755;28;20036;-60
2021/10/14 01:42:24;;;;;;;22.95;5.88;;;10.80;84.60;;;;;;5022885;28;20049;-60
2021/10/14 01:44:50;;;;;;;25.55;5.82;;;10.80;84.80;;;;;;5005158;28;20059;-60
2021/10/14 01:47:15;;;;;;;22.92;5.63;;;10.80;84.80;;;;;;5017894;28;20025;-60
2021/10/14 01:49:42;;;;;;;12.48;5.15;;;10.80;85.30;;;;;;5023179;28;20079;-59
2021/10/14 01:52:07;;;;;;;16.90;4.55;;;10.70;85.00;;;;;;5027252;28;20540;-60
2021/10/14 01:54:33;;;;;;;20.80;4.72;;;10.70;85.00;;;;;;5020632;28;20532;-60
2021/10/14 01:56:58;;;;;;;9.63;4.30;;;10.70;85.00;;;;;;5021974;28;20033;-60
2021/10/14 01:59:24;;;;;;;13.82;4.55;;;10.70;85.10;;;;;;5036815;28;20033;-60
2021/10/14 02:01:49;;;;;;;14.63;5.05;;;10.70;85.20;;;;;;5026083;28;20037;-60
2021/10/14 02:04:15;;;;;;;15.90;4.63;;;10.70;85.20;;;;;;5021447;28;20029;-60
2021/10/14 02:06:40;;;;;;;13.10;4.25;;;10.60;85.20;;;;;;5024054;28;20210;-60
2021/10/14 02:09:06;;;;;;;13.18;4.60;;;10.70;85.30;;;;;;5025762;28;20064;-60
2021/10/14 02:11:31;;;;;;;13.18;5.22;;;10.60;85.30;;;;;;5028927;28;20520;-61
2021/10/14 02:13:57;;;;;;;23.17;4.78;;;10.60;85.30;;;;;;5024567;28;20029;-61
2021/10/14 02:16:23;;;;;;;13.40;4.95;;;10.60;85.30;;;;;;5023106;28;20472;-60
2021/10/14 02:18:48;;;;;;;15.77;5.35;;;10.60;85.40;;;;;;5005694;28;20033;-60
2021/10/14 02:21:15;;;;;;;13.70;5.20;;;10.60;85.40;;;;;;5024888;28;20092;-60
2021/10/14 02:23:41;;;;;;;15.00;5.30;;;10.60;85.50;;;;;;5022910;28;20111;-60
2021/10/14 02:26:07;;;;;;;17.58;4.93;;;10.50;85.40;;;;;;5021354;28;20481;-60
2021/10/14 02:28:32;;;;;;;13.05;4.88;;;10.50;85.30;;;;;;5023594;28;20135;-61
2021/10/14 02:30:58;;;;;;;10.82;4.90;;;10.50;85.40;;;;;;5024164;28;20029;-61
2021/10/14 02:33:23;;;;;;;12.38;4.93;;;10.50;85.40;;;;;;5029005;28;20029;-60
2021/10/14 02:35:49;;;;;;;9.32;4.40;;;10.50;85.50;;;;;;5026155;28;20564;-61
2021/10/14 02:38:14;;;;;;;17.23;4.28;;;10.50;85.50;;;;;;5009318;28;20025;-61
2021/10/14 02:40:40;;;;;;;10.93;4.68;;;10.50;85.40;;;;;;5027164;28;20428;-60
2021/10/14 02:43:05;;;;;;;10.70;4.50;;;10.50;85.50;;;;;;5034636;28;20049;-60
2021/10/14 02:45:31;;;;;;;11.30;4.35;;;10.50;85.50;;;;;;5023905;28;20505;-61
2021/10/14 02:47:56;;;;;;;11.65;4.10;;;10.40;85.50;;;;;;5028114;28;20049;-60
2021/10/14 02:50:22;;;;;;;12.52;4.40;;;10.50;85.50;;;;;;5022129;28;20072;-60
2021/10/14 02:52:47;;;;;;;6.60;4.35;;;10.40;85.40;;;;;;5034979;28;20107;-60
2021/10/14 02:55:13;;;;;;;9.23;4.22;;;10.40;85.40;;;;;;5019987;28;20524;-60
2021/10/14 02:57:38;;;;;;;9.07;3.92;;;10.40;85.40;;;;;;5023445;28;20115;-60
2021/10/14 03:00:05;;;;;;;11.20;4.35;;;10.40;85.30;;;;;;5024593;28;20029;-60
2021/10/14 03:02:31;;;;;;;8.77;3.95;;;10.40;85.40;;;;;;5023209;28;20485;-60
2021/10/14 03:04:56;;;;;;;12.70;3.72;;;10.30;85.40;;;;;;5023861;28;20034;-60
2021/10/14 03:07:22;;;;;;;6.53;3.55;;;10.30;86.20;;;;;;5022805;28;20032;-60
2021/10/14 03:09:47;;;;;;;7.28;3.78;;;10.40;85.70;;;;;;5023182;28;20033;-60
2021/10/14 03:12:13;;;;;;;5.30;3.30;;;10.30;85.60;;;;;;5024420;28;20053;-60
2021/10/14 03:14:38;;;;;;;6.65;3.13;;;10.30;85.60;;;;;;5023327;28;20121;-60
2021/10/14 03:17:04;;;;;;;6.95;3.80;;;10.30;85.70;;;;;;5031269;28;20495;-60
2021/10/14 03:19:29;;;;;;;5.25;3.38;;;10.30;85.70;;;;;;5032407;28;20037;-60
2021/10/14 03:21:55;;;;;;;6.97;3.15;;;10.20;85.60;;;;;;5013221;28;20033;-60
2021/10/14 03:24:20;;;;;;;5.22;3.28;;;10.20;85.70;;;;;;5036423;28;20456;-60
2021/10/14 03:26:46;;;;;;;5.93;3.15;;;10.20;85.70;;;;;;5031005;28;20480;-60
2021/10/14 03:29:11;;;;;;;8.38;3.30;;;10.20;85.80;;;;;;5030662;28;20034;-60
2021/10/14 03:31:37;;;;;;;5.05;2.55;;;10.20;85.80;;;;;;5037344;28;20036;-60
2021/10/14 03:34:02;;;;;;;6.85;3.30;;;10.20;86.00;;;;;;5005618;28;20111;-60
2021/10/14 03:36:28;;;;;;;8.90;3.30;;;10.10;86.00;;;;;;5022506;28;20029;-61
2021/10/14 03:38:53;;;;;;;5.88;3.78;;;10.10;86.00;;;;;;5018295;28;20872;-61
2021/10/14 03:41:19;;;;;;;11.25;3.70;;;10.10;86.00;;;;;;5017782;28;20110;-60
2021/10/14 03:43:44;;;;;;;10.10;3.50;;;10.10;86.00;;;;;;5034367;28;20103;-60
2021/10/14 03:46:10;;;;;;;6.65;3.60;;;10.10;86.00;;;;;;5021307;28;20022;-60
2021/10/14 03:48:36;;;;;;;8.85;3.50;;;10.10;86.10;;;;;;5033999;28;20477;-60
2021/10/14 03:51:01;;;;;;;8.50;4.15;;;10.10;86.20;;;;;;5023902;28;20035;-60
2021/10/14 03:53:27;;;;;;;6.35;4.18;;;10.10;86.10;;;;;;5021501;28;20044;-61
2021/10/14 03:55:52;;;;;;;7.25;3.22;;;10.10;86.10;;;;;;5025027;28;20494;-60
2021/10/14 03:58:18;;;;;;;8.35;3.88;;;10.10;86.20;;;;;;5029138;28;20181;-61
2021/10/14 04:00:43;;;;;;;8.52;4.25;;;10.10;86.20;;;;;;5035978;28;20136;-60
2021/10/14 04:03:09;;;;;;;7.50;3.70;;;10.00;86.20;;;;;;5040477;28;20064;-60
2021/10/14 04:05:34;;;;;;;6.32;3.25;;;10.00;86.20;;;;;;5031243;28;20108;-60
2021/10/14 04:08:00;;;;;;;6.65;3.42;;;10.00;86.20;;;;;;5028876;28;20049;-60
2021/10/14 04:10:25;;;;;;;5.28;3.30;;;10.00;86.20;;;;;;5023986;28;20065;-60
2021/10/14 04:12:51;;;;;;;6.82;3.63;;;10.00;86.20;;;;;;5030756;28;20111;-61
2021/10/14 04:15:18;;;;;;;5.82;4.03;;;10.00;86.30;;;;;;5030151;28;20054;-60
2021/10/14 04:17:43;;;;;;;5.05;3.80;;;9.90;86.30;;;;;;5008029;28;20057;-60
2021/10/14 04:20:09;;;;;;;7.57;3.92;;;9.90;86.20;;;;;;5018019;28;20860;-60
2021/10/14 04:22:34;;;;;;;6.75;4.07;;;9.90;86.30;;;;;;5025857;28;20057;-60
2021/10/14 04:25:00;;;;;;;5.82;3.42;;;9.90;86.20;;;;;;5023780;28;20087;-60
2021/10/14 04:27:25;;;;;;;5.60;3.60;;;9.80;86.20;;;;;;5022012;28;20501;-60
2021/10/14 04:29:51;;;;;;;5.07;3.88;;;9.80;86.20;;;;;;5026330;28;20095;-60
2021/10/14 04:32:17;;;;;;;5.47;3.75;;;9.80;86.30;;;;;;5018586;28;20144;-60
2021/10/14 04:34:42;;;;;;;4.80;3.55;;;9.80;86.30;;;;;;5024991;28;21068;-60
2021/10/14 04:37:08;;;;;;;4.82;3.38;;;9.70;86.30;;;;;;5024194;28;20033;-60
2021/10/14 04:39:37;;;;;;;6.28;3.40;;;9.70;86.30;;;;;;5026839;28;20155;-60
2021/10/14 04:42:03;;;;;;;4.47;3.67;;;9.70;86.40;;;;;;5002885;28;20045;-60
2021/10/14 04:44:29;;;;;;;6.90;3.65;;;9.70;86.40;;;;;;5011635;28;20025;-60
2021/10/14 04:46:54;;;;;;;5.65;4.07;;;9.70;86.50;;;;;;5024313;28;20595;-60
2021/10/14 04:49:20;;;;;;;7.38;3.55;;;9.60;86.50;;;;;;5026421;28;20028;-60
2021/10/14 04:51:45;;;;;;;6.43;3.33;;;9.70;86.60;;;;;;5022127;28;20108;-60
2021/10/14 04:54:11;;;;;;;4.30;3.58;;;9.60;86.50;;;;;;5022842;28;20087;-60
2021/10/14 04:56:36;;;;;;;5.03;3.78;;;9.60;86.60;;;;;;5027699;28;20080;-62
2021/10/14 04:59:02;;;;;;;8.88;3.33;;;9.60;86.70;;;;;;5028386;28;20662;-60
2021/10/14 05:01:27;;;;;;;7.57;3.47;;;9.50;86.70;;;;;;5026219;28;20029;-60
2021/10/14 05:03:53;;;;;;;5.07;3.13;;;9.50;86.60;;;;;;5024385;28;20030;-60
2021/10/14 05:06:19;;;;;;;4.20;3.05;;;9.50;86.60;;;;;;5029130;28;20025;-60
2021/10/14 05:08:44;;;;;;;7.65;3.63;;;9.50;86.70;;;;;;5032430;28;20376;-60
2021/10/14 05:11:13;;;;;;;5.15;3.42;;;9.50;86.70;;;;;;5022341;28;20095;-60
2021/10/14 05:13:38;;;;;;;4.75;3.60;;;9.40;86.80;;;;;;5027644;28;20035;-60
2021/10/14 05:16:04;;;;;;;6.53;3.40;;;9.50;86.80;;;;;;5024173;28;20025;-60
2021/10/14 05:18:30;;;;;;;7.03;3.55;;;9.40;87.00;;;;;;5012710;28;20029;-60
2021/10/14 05:20:55;;;;;;;7.20;3.60;;;9.40;86.90;;;;;;5022520;28;20048;-60
2021/10/14 05:23:21;;;;;;;4.82;3.60;;;9.40;86.90;;;;;;5023307;28;20533;-61
2021/10/14 05:25:46;;;;;;;5.80;3.78;;;9.40;87.00;;;;;;5023260;28;20034;-61
2021/10/14 05:28:12;;;;;;;5.03;3.10;;;9.40;87.00;;;;;;5022816;28;20253;-61
2021/10/14 05:30:37;;;;;;;3.97;3.42;;;9.30;87.00;;;;;;5023976;28;20032;-61
2021/10/14 05:33:03;;;;;;;4.53;3.70;;;9.30;87.10;;;;;;5023057;28;20477;-60
2021/10/14 05:35:28;;;;;;;4.22;3.35;;;9.30;87.10;;;;;;5021504;28;20037;-61
2021/10/14 05:37:54;;;;;;;4.85;3.65;;;9.30;87.10;;;;;;5022753;28;20152;-62
2021/10/14 05:40:19;;;;;;;5.90;3.60;;;9.30;87.10;;;;;;5023270;28;20049;-60
2021/10/14 05:42:45;;;;;;;4.70;3.78;;;9.30;87.10;;;;;;5024412;28;20077;-61
2021/10/14 05:45:10;;;;;;;4.97;3.45;;;9.30;87.10;;;;;;5007131;28;20465;-60
2021/10/14 05:47:36;;;;;;;6.03;4.10;;;9.30;87.10;;;;;;5021116;28;20060;-60
2021/10/14 05:50:02;;;;;;;6.72;4.80;;;9.20;87.20;;;;;;5021588;28;20046;-60
2021/10/14 05:52:28;;;;;;;8.23;5.07;;;9.20;87.30;;;;;;5024062;28;20036;-62
2021/10/14 05:54:53;;;;;;;8.05;4.70;;;9.20;87.20;;;;;;5031954;28;20448;-60
2021/10/14 05:57:20;;;;;;;7.78;5.10;;;9.20;87.20;;;;;;5034633;28;20060;-60
2021/10/14 05:59:46;;;;;;;5.43;4.68;;;9.20;87.10;;;;;;5024382;28;20021;-60
2021/10/14 06:02:11;;;;;;;11.00;5.35;;;9.20;87.10;;;;;;5028104;28;20516;-60
2021/10/14 06:04:37;;;;;;;5.50;4.93;;;9.20;87.10;;;;;;5027830;28;20025;-60
2021/10/14 06:07:02;;;;;;;12.05;6.13;;;9.20;87.10;;;;;;5029539;28;20026;-60
2021/10/14 06:09:28;;;;;;;8.30;5.63;;;9.20;87.10;;;;;;5030011;28;20033;-60
2021/10/14 06:11:53;;;;;;;8.32;5.90;;;9.10;87.20;;;;;;5019803;28;20478;-60
2021/10/14 06:14:19;;;;;;;8.50;5.80;;;9.10;87.20;;;;;;5022625;28;20061;-67
2021/10/14 06:16:44;;;;;;;8.50;5.65;;;9.10;87.30;;;;;;5021206;28;20677;-60
2021/10/14 06:19:10;;;;;;;7.72;5.32;;;9.10;87.30;;;;;;5028365;28;20025;-60
2021/10/14 06:21:35;;;;;;;7.85;5.50;;;9.10;87.30;;;;;;5020383;28;20370;-60
2021/10/14 06:24:01;;;;;;;8.50;5.72;;;9.10;88.00;;;;;;5029124;28;20024;-60
2021/10/14 06:26:26;;;;;;;7.15;5.63;;;9.10;87.30;;;;;;5021309;28;20026;-60
2021/10/14 06:28:52;;;;;;;7.30;5.53;;;9.00;87.40;;;;;;5023161;28;20041;-60
2021/10/14 06:31:19;;;;;;;7.50;5.75;;;9.10;87.40;;;;;;5026794;28;20485;-60
2021/10/14 06:33:44;;;;;;;8.38;5.88;;;9.10;87.30;;;;;;5022072;28;20056;-60
2021/10/14 06:36:10;;;;;;;8.98;5.70;;;9.10;87.40;;;;;;5024413;28;20049;-60
2021/10/14 06:38:35;;;;;;;9.20;5.88;;;9.10;87.40;;;;;;5025120;28;20100;-60
2021/10/14 06:41:01;;;;;;;10.77;5.93;;;9.00;87.30;;;;;;5018209;28;20024;-60
2021/10/14 06:43:26;;;;;;;6.68;5.30;;;9.10;87.40;;;;;;5024967;28;20426;-61
2021/10/14 06:45:52;;;;;;;9.50;5.80;;;9.10;87.40;;;;;;5020755;28;20029;-61
2021/10/14 06:48:17;;;;;;;7.18;5.65;;;9.10;87.50;;;;;;5004598;28;20028;-60
2021/10/14 06:50:43;;;;;;;8.95;5.78;;;9.10;87.50;;;;;;5022610;28;20055;-60
2021/10/14 06:53:10;;;;;;;14.70;5.30;;;9.10;87.50;;;;;;5023112;28;20025;-61
2021/10/14 06:55:36;;;;;;;10.18;6.15;;;9.10;87.50;;;;;;5023446;28;20034;-61
2021/10/14 06:58:02;;;;;;;10.80;5.88;;;9.00;87.60;;;;;;5004283;28;20033;-60
2021/10/14 07:00:27;;;;;;;10.00;5.60;;;9.10;87.70;;;;;;5026648;28;20028;-60
2021/10/14 07:02:53;;;;;;;11.43;6.60;;;9.10;87.70;;;;;;5026427;28;21473;-60
2021/10/14 07:05:18;;;;;;;15.63;6.63;;;9.10;87.80;;;;;;5026404;28;20101;-60
2021/10/14 07:07:44;;;;;;;12.40;7.47;;;9.10;87.90;;;;;;5026021;28;20101;-60
2021/10/14 07:10:09;;;;;;;12.20;7.05;;;9.10;88.00;;;;;;5007457;28;20050;-60
2021/10/14 07:12:37;;;;;;;13.55;6.68;;;9.20;87.90;;;;;;5026126;28;20099;-60
2021/10/14 07:15:03;;;;;;;11.68;6.60;;;9.10;87.90;;;;;;5024744;28;20028;-60
2021/10/14 07:17:29;;;;;;;12.38;7.55;;;9.10;88.00;;;;;;5025321;28;20029;-60
2021/10/14 07:19:55;;;;;;;19.50;8.55;;;9.10;88.10;;;;;;5025552;28;20042;-60
2021/10/14 07:22:20;;;;;;;11.88;7.00;;;9.10;88.20;;;;;;5026011;28;20049;-60
2021/10/14 07:24:46;;;;;;;23.33;7.80;;;9.10;88.40;;;;;;5026699;28;20045;-60
2021/10/14 07:27:11;;;;;;;14.25;8.73;;;9.10;88.60;;;;;;5028010;28;20026;-60
2021/10/14 07:29:37;;;;;;;21.88;7.88;;;9.10;88.60;;;;;;5026434;28;20038;-60
2021/10/14 07:32:03;;;;;;;20.02;8.27;;;9.10;88.80;;;;;;5026771;28;20033;-60
2021/10/14 07:34:29;;;;;;;15.13;7.93;;;9.10;88.80;;;;;;5022908;28;20508;-60
2021/10/14 07:36:54;;;;;;;26.88;8.50;;;9.10;88.90;;;;;;5006857;28;20052;-60
2021/10/14 07:39:20;;;;;;;22.77;8.68;;;9.00;89.10;;;;;;5025149;28;20036;-60
2021/10/14 07:41:46;;;;;;;28.48;9.00;;;9.00;89.10;;;;;;4990851;28;20122;-60
2021/10/14 07:44:13;;;;;;;20.25;7.97;;;9.10;89.30;;;;;;5025693;28;20128;-60
2021/10/14 07:46:39;;;;;;;31.45;9.98;;;9.10;89.90;;;;;;5023157;28;20104;-61
2021/10/14 07:49:05;;;;;;;30.95;9.63;;;9.10;89.40;;;;;;5025114;28;20384;-60
2021/10/14 07:51:30;;;;;;;29.42;10.32;;;9.10;89.50;;;;;;5022246;28;20029;-60
2021/10/14 07:53:56;;;;;;;26.95;10.00;;;9.10;89.60;;;;;;5022867;28;20180;-60
2021/10/14 07:56:21;;;;;;;29.42;9.52;;;9.10;89.70;;;;;;5025473;28;20549;-60
2021/10/14 07:58:47;;;;;;;31.63;10.02;;;9.00;89.70;;;;;;5022545;28;20087;-60
2021/10/14 08:01:12;;;;;;;31.13;10.00;;;9.00;89.70;;;;;;5022635;28;20542;-61
2021/10/14 08:03:38;;;;;;;25.10;9.13;;;9.10;89.80;;;;;;5022571;28;20427;-62
2021/10/14 08:06:04;;;;;;;20.55;8.95;;;9.00;89.80;;;;;;5023596;28;20112;-64
2021/10/14 08:08:29;;;;;;;26.83;9.40;;;9.10;90.00;;;;;;5006922;28;20108;-60
2021/10/14 08:10:55;;;;;;;23.73;10.63;;;9.00;90.00;;;;;;5022653;28;20021;-61
2021/10/14 08:13:21;;;;;;;26.35;10.55;;;9.10;90.10;;;;;;5023092;28;20673;-60
2021/10/14 08:15:50;;;;;;;29.95;10.48;;;9.10;90.10;;;;;;5003887;28;20041;-61
2021/10/14 08:18:19;;;;;;;23.48;10.57;;;9.10;90.10;;;;;;5021169;28;20040;-60
2021/10/14 08:20:45;;;;;;;21.15;10.13;;;9.10;90.20;;;;;;5019369;28;20033;-61
2021/10/14 08:23:10;;;;;;;24.55;9.65;;;9.10;90.10;;;;;;5021203;28;20489;-60
2021/10/14 08:25:36;;;;;;;18.65;9.43;;;9.10;90.20;;;;;;5021718;28;20116;-60
2021/10/14 08:28:01;;;;;;;22.73;10.65;;;9.10;90.20;;;;;;5022773;28;20117;-61
2021/10/14 08:30:27;;;;;;;25.10;10.75;;;9.10;90.20;;;;;;5024803;28;20041;-60
2021/10/14 08:32:52;;;;;;;26.05;10.07;;;9.10;90.20;;;;;;5021574;28;20503;-60
2021/10/14 08:35:21;;;;;;;43.72;11.10;;;9.10;90.20;;;;;;5026393;28;20769;-60
2021/10/14 08:37:47;;;;;;;32.80;11.27;;;9.20;90.20;;;;;;5019168;28;20041;-60
2021/10/14 08:40:14;;;;;;;24.95;10.10;;;9.20;90.20;;;;;;5019857;28;20021;-60
2021/10/14 08:42:40;;;;;;;34.58;11.05;;;9.20;90.20;;;;;;5005907;28;20626;-60
2021/10/14 08:45:07;;;;;;;26.42;10.93;;;9.20;90.30;;;;;;5020987;28;20044;-60
2021/10/14 08:47:32;;;;;;;29.30;12.20;;;9.20;90.30;;;;;;5022813;28;20366;-60
2021/10/14 08:49:58;;;;;;;94.13;17.65;;;9.20;90.30;;;;;;5025838;28;20053;-60
2021/10/14 08:52:24;;;;;;;64.68;12.27;;;9.20;90.30;;;;;;5022348;28;20477;-60
2021/10/14 08:54:50;;;;;;;84.35;15.25;;;9.20;90.30;;;;;;5006297;28;20066;-60
2021/10/14 08:57:15;;;;;;;39.60;11.68;;;9.20;90.30;;;;;;5017444;28;20037;-60
2021/10/14 08:59:40;;;;;;;32.00;11.52;;;9.20;90.20;;;;;;5022552;28;20503;-61
2021/10/14 09:02:14;;;;;;;35.20;12.40;;;9.30;90.30;;;;;;5023687;28;20124;-60
2021/10/14 09:05:01;;;;;;;47.72;12.38;;;9.20;90.30;;;;;;5022095;28;20025;-60
2021/10/14 09:07:28;;;;;;;43.22;12.00;;;9.30;90.30;;;;;;5020787;28;20059;-61
2021/10/14 09:09:56;;;;;;;67.00;14.40;;;9.30;90.30;;;;;;5029981;28;20037;-61
2021/10/14 09:12:22;;;;;;;64.72;14.98;;;9.30;90.30;;;;;;5029036;28;20087;-60
2021/10/14 09:14:56;;;;;;;69.90;15.32;;;9.30;90.30;;;;;;5028615;28;20523;-60
2021/10/14 09:17:42;;;;;;;54.28;12.75;;;9.30;90.30;;;;;;5027794;28;20268;-60
2021/10/14 09:20:34;;;;;;;67.10;13.45;;;9.30;90.30;;;;;;5024649;28;20126;-60
2021/10/14 09:23:13;;;;;;;44.00;12.45;;;9.30;90.30;;;;;;5019591;28;20045;-60
2021/10/14 09:25:47;;;;;;;46.20;12.48;;;9.40;90.30;;;;;;5026327;28;20036;-60
2021/10/14 09:28:26;;;;;;;54.95;13.13;;;9.40;90.30;;;;;;5024676;28;20358;-60
2021/10/14 09:30:55;;;;;;;52.90;12.43;;;9.40;90.30;;;;;;5006076;28;20037;-60
2021/10/14 09:33:27;;;;;;;49.20;13.45;;;9.40;90.30;;;;;;5023655;28;20064;-64
2021/10/14 09:35:52;;;;;;;38.28;12.60;;;9.40;90.40;;;;;;5021818;28;20025;-60
2021/10/14 09:38:33;;;;;;;36.45;12.05;;;9.40;90.40;;;;;;5021280;28;20030;-60
2021/10/14 09:41:07;;;;;;;39.05;11.85;;;9.50;90.40;;;;;;5022539;28;20124;-60
2021/10/14 09:43:32;;;;;;;44.83;12.60;;;9.70;90.40;;;;;;5023651;28;20064;-62
2021/10/14 09:45:58;;;;;;;45.85;13.05;;;9.40;90.60;;;;;;5019661;28;20045;-60
2021/10/14 09:48:24;;;;;;;51.88;14.18;;;9.50;90.30;;;;;;5005974;28;20040;-60
2021/10/14 09:50:51;;;;;;;56.10;12.20;;;9.50;90.30;;;;;;5021455;28;20033;-60
2021/10/14 09:53:18;;;;;;;49.42;12.45;;;9.50;90.30;;;;;;5021713;28;20115;-60
2021/10/14 09:55:44;;;;;;;44.88;12.27;;;9.50;90.30;;;;;;5015855;28;20495;-60
2021/10/14 09:58:10;;;;;;;40.00;13.23;;;9.50;90.30;;;;;;5005808;28;20909;-60
2021/10/14 10:00:37;;;;;;;38.40;13.30;;;9.60;90.40;;;;;;5023008;28;20103;-60
2021/10/14 10:03:04;;;;;;;47.17;13.05;;;9.60;90.30;;;;;;5024766;28;20511;-60
2021/10/14 10:05:30;;;;;;;43.90;12.32;;;9.60;90.30;;;;;;5022341;28;20132;-60
2021/10/14 10:07:55;;;;;;;51.17;12.40;;;9.60;90.40;;;;;;5006072;28;20377;-60
2021/10/14 10:10:22;;;;;;;39.22;12.55;;;9.60;90.30;;;;;;5022034;28;20038;-60
2021/10/14 10:12:47;;;;;;;34.63;11.95;;;9.70;90.30;;;;;;5004136;28;20130;-61
2021/10/14 10:15:13;;;;;;;60.28;13.30;;;9.70;90.30;;;;;;5020658;28;20053;-60
2021/10/14 10:17:40;;;;;;;43.63;13.23;;;9.70;90.30;;;;;;5022313;28;20036;-60
2021/10/14 10:20:06;;;;;;;71.90;12.60;;;9.70;90.20;;;;;;5022171;28;20026;-60
2021/10/14 10:22:35;;;;;;;54.47;13.48;;;9.70;90.20;;;;;;5024197;28;20225;-61
2021/10/14 10:25:25;;;;;;;61.42;14.45;;;9.70;90.30;;;;;;5022135;28;20041;-60
2021/10/14 10:27:52;;;;;;;59.72;14.18;;;9.70;90.30;;;;;;5026443;28;20022;-60
2021/10/14 10:30:32;;;;;;;48.22;12.23;;;9.80;90.30;;;;;;5025954;28;20160;-61
2021/10/14 10:32:58;;;;;;;37.85;13.32;;;9.80;90.30;;;;;;5029022;28;20090;-60
2021/10/14 10:35:46;;;;;;;65.40;12.55;;;9.80;90.30;;;;;;4994871;28;20025;-60
2021/10/14 10:38:26;;;;;;;51.92;12.77;;;9.80;90.30;;;;;;5026220;28;20045;-60
2021/10/14 10:40:55;;;;;;;33.17;11.30;;;9.80;90.30;;;;;;5025251;28;20725;-60
2021/10/14 10:43:26;;;;;;;53.72;11.50;;;9.90;90.30;;;;;;5025964;28;20049;-60
2021/10/14 10:45:56;;;;;;;51.10;12.75;;;9.90;90.20;;;;;;5024768;28;20521;-60
2021/10/14 10:48:41;;;;;;;56.45;11.30;;;9.80;90.30;;;;;;5027931;28;20033;-60
2021/10/14 10:51:26;;;;;;;59.80;11.20;;;9.90;90.30;;;;;;5008848;28;20036;-60
2021/10/14 10:53:52;;;;;;;48.58;12.23;;;9.80;90.20;;;;;;5020261;28;20124;-60
2021/10/14 10:56:39;;;;;;;53.45;11.65;;;10.00;90.30;;;;;;5021774;28;20090;-60
2021/10/14 10:59:06;;;;;;;87.00;14.55;;;10.00;90.30;;;;;;5027010;28;20485;-60
2021/10/14 11:01:31;;;;;;;95.38;15.40;;;10.00;90.20;;;;;;5026511;28;20554;-60
2021/10/14 11:03:57;;;;;;;77.00;15.27;;;10.10;90.10;;;;;;5023460;28;20025;-61
2021/10/14 11:06:22;;;;;;;64.45;12.52;;;10.00;90.10;;;;;;5022774;28;20025;-60
2021/10/14 11:08:48;;;;;;;51.00;11.25;;;10.10;90.20;;;;;;5023253;28;20511;-60
2021/10/14 11:11:18;;;;;;;55.60;10.32;;;10.10;90.10;;;;;;5024485;28;20041;-64
2021/10/14 11:13:52;;;;;;;42.00;11.32;;;10.20;90.20;;;;;;5025240;28;20473;-64
2021/10/14 11:16:18;;;;;;;62.90;12.65;;;10.20;90.20;;;;;;5025510;28;20060;-61
2021/10/14 11:18:48;;;;;;;101.95;15.50;;;10.20;90.20;;;;;;5025595;28;20042;-60
2021/10/14 11:21:16;;;;;;;92.32;15.80;;;10.20;90.20;;;;;;5021711;28;20033;-59
2021/10/14 11:23:50;;;;;;;107.40;14.25;;;10.30;90.20;;;;;;5007384;28;20051;-60
2021/10/14 11:26:29;;;;;;;82.10;13.82;;;10.30;90.10;;;;;;5037163;28;20030;-60
2021/10/14 11:29:01;;;;;;;108.53;15.00;;;10.30;90.10;;;;;;5023417;28;20044;-61
2021/10/14 11:31:40;;;;;;;82.90;13.95;;;10.40;90.10;;;;;;5020077;28;20556;-60
2021/10/14 11:34:08;;;;;;;57.17;12.48;;;10.40;90.20;;;;;;5019449;28;20373;-60
2021/10/14 11:36:34;;;;;;;66.45;12.50;;;10.40;90.10;;;;;;5022213;28;20038;-60
2021/10/14 11:39:02;;;;;;;70.55;13.75;;;10.50;90.10;;;;;;5003981;28;20029;-60
2021/10/14 11:41:28;;;;;;;90.95;13.52;;;10.50;90.00;;;;;;5004355;28;20400;-60
2021/10/14 11:43:55;;;;;;;79.18;13.88;;;10.50;89.90;;;;;;5025501;28;20060;-60
2021/10/14 11:46:25;;;;;;;68.90;12.13;;;10.50;89.70;;;;;;5026001;28;20033;-60
2021/10/14 11:48:54;;;;;;;75.82;11.98;;;10.60;89.60;;;;;;5023911;28;20119;-60
2021/10/14 11:51:19;;;;;;;82.68;14.13;;;10.60;89.50;;;;;;5007269;28;20049;-60
2021/10/14 11:53:55;;;;;;;93.38;13.45;;;10.60;89.50;;;;;;5026868;28;20033;-60
2021/10/14 11:56:20;;;;;;;64.85;12.60;;;10.60;89.30;;;;;;5022242;28;20041;-60
2021/10/14 11:58:46;;;;;;;68.72;11.85;;;10.70;89.20;;;;;;5024523;28;20567;-60
2021/10/14 12:01:12;;;;;;;74.78;11.85;;;10.70;89.10;;;;;;5009266;28;20266;-60
2021/10/14 12:03:37;;;;;;;71.78;12.55;;;10.70;88.90;;;;;;5024144;28;20481;-60
2021/10/14 12:06:03;;;;;;;95.43;13.73;;;10.70;88.80;;;;;;5025707;28;20038;-60
2021/10/14 12:08:29;;;;;;;76.15;12.23;;;10.70;88.60;;;;;;5008873;28;20036;-60
2021/10/14 12:10:54;;;;;;;68.18;12.70;;;10.80;88.50;;;;;;5023431;28;20653;-60
2021/10/14 12:13:30;;;;;;;69.88;12.73;;;10.80;88.30;;;;;;5025095;28;20029;-60
2021/10/14 12:16:07;;;;;;;78.03;14.68;;;10.90;88.20;;;;;;5009070;28;20029;-60
2021/10/14 12:18:32;;;;;;;83.53;12.25;;;10.90;88.10;;;;;;5026512;28;20037;-60
2021/10/14 12:20:58;;;;;;;77.00;12.48;;;10.90;88.10;;;;;;5020379;28;20492;-60
2021/10/14 12:23:30;;;;;;;83.30;13.45;;;11.00;88.00;;;;;;5018663;28;20148;-61
2021/10/14 12:26:14;;;;;;;84.32;13.05;;;11.00;87.90;;;;;;5021503;28;20026;-60
2021/10/14 12:28:43;;;;;;;110.10;14.65;;;11.10;87.90;;;;;;5022296;28;20026;-60
2021/10/14 12:31:13;;;;;;;117.10;16.55;;;11.10;87.70;;;;;;5024457;28;20060;-60
2021/10/14 12:33:39;;;;;;;101.95;13.73;;;11.20;87.70;;;;;;5024574;28;20132;-60
2021/10/14 12:36:04;;;;;;;80.60;11.93;;;11.20;87.70;;;;;;5018967;28;20075;-60
2021/10/14 12:38:40;;;;;;;65.18;10.73;;;11.20;87.40;;;;;;5022768;28;20147;-60